Share

Bingham, IL

Eckcellent Karaoke (KILHILLS4) Elev 623 ft | 39.16 °N, 89.50 °W | Change Station

Current weather conditions updated 4 seconds ago

Clear
Clear
48.8 °F
Feels Like 49 °F
N
1.0
Wind Variable Wind from SE
Gusts 1.0 mph
Sunrise 6:15 AM
Sunset 7:37 PM
Moon Waning Gibbous

Today is forecast to be Warmer than yesterday.

Pressure 30.26 in
Visibility 10.0 miles
Clouds Clear
Windchill 49 °F
Dew Point 43 °F
Humidity 79%
Rainfall 0.00 in
Snow Depth Not available.
UV 0 out of 16
Pollen 9.80 out of 12
Air Quality Not available.
Flu Activity Local Activity
METAR K1H2 180555Z AUTO 00000KT 10SM CLR 08/04 A3026 RMK AO2 T00810037 10170 20074 401960024

More Conditions Fewer Conditions

Pressure 30.26 in
Visibility 10.0 miles
Clouds Clear
Windchill 49 °F
Dew Point 43 °F
Humidity 79%
Rainfall 0.00 in
Snow Depth Not available.
UV 0 out of 16
Pollen 9.80 out of 12
Air Quality Not available.
Flu Activity Local Activity
METAR K1H2 180555Z AUTO 00000KT 10SM CLR 08/04 A3026 RMK AO2 T00810037 10170 20074 401960024

More Conditions Fewer Conditions

10-Day Forecast

Almanac

Astronomy

Apr. 18, 2014 Rise Set
Actual Time 6:15 AM CDT 7:37 PM CDT
Civil Twilight 5:47 AM CDT 8:05 PM CDT
Nautical Twilight 5:14 AM CDT 8:38 PM CDT
Astronomical Twilight 4:39 AM CDT 9:13 PM CDT
Moon 11:21 PM CDT 8:38 AM CDT
Length of Visible Light 14h 17m
Length of Day
13h 21m
Tomorrow will be 2m 23s longer.
Waning Gibbous, 90% of the Moon is Illuminated
Today
Waning Gibbous
Apr 22
Last Quarter
Apr 29
New
May 6
First Quarter
May 14
Full

Today's Extremes

State Highs State Lows

Community

  • SUNRISE THROUGH THE TREES.
    SUNRISE THROUGH THE TREES.
  • Dog Wood Blossoms
    Dog Wood Blossoms
  • Morning Light
    Morning Light
  • New Day
    New Day
  • Lake Michigan Sunrise
    Lake Michigan Sunrise

WunderPhotos

Upload Photos

1,702,276 photos uploaded!

WunderBlogs® & News

Nearby

Snow Depth

Station Depth Elevation
No new snow has been reported.

Coastal Water Temperatures

Place Temperature
No Stations Reporting

Earthquake Activity

City Distance Mag. Time & Date
No recent earthquake activity has been reported nearby.
Minimum magnitude displayed is 2.5.

Nearby Weather Stations

Station Location Temp. Windchill Dew Point Humidity Wind Precip. Elev Updated Type
MesoWest NOKOMS , Nokomis, IL 50 °F - - - North  at  - 0.00 in / hr 659 ft 12:10 AM CDT MADIS
Eckcellent Karaoke, Hillsboro, IL 48.8 °F 49 °F 43 °F 79% SE  at  1.0 mph 0.00 in / hr 623 ft 1:19 AM CDT Rapid Fire
Pana, Pana, IL 48.7 °F 49 °F 42 °F 79% North  at  0.0 mph 0.00 in / hr 689 ft 1:19 AM CDT Normal
St. Elmo, Ilinois, St. Elmo, IL 50.8 °F - 43 °F 74% NNW  at  1.0 mph 0.00 in / hr 614 ft 1:18 AM CDT Normal
MesoWest DOLVIL , Dollville, IL 51 °F - - - North  at  - 0.00 in / hr 668 ft 10:15 PM CDT MADIS

Show More Stations Show Fewer Stations

What do you think?

We're not finished. Please let us know what you like, what you don't like, and what you are still missing.